createdAt,value
2023-03-10T00:01:22.843Z,1.10
2023-03-10T00:03:50.194Z,1.30
2023-03-10T00:06:19.362Z,1.38
2023-03-10T00:08:46.617Z,1.23
2023-03-10T00:11:14.138Z,1.20
2023-03-10T00:13:41.417Z,1.33
2023-03-10T00:16:08.496Z,1.50
2023-03-10T00:18:35.639Z,1.20
2023-03-10T00:21:02.471Z,1.42
2023-03-10T00:23:29.342Z,1.05
2023-03-10T00:26:00.747Z,1.42
2023-03-10T00:28:28.398Z,1.05
2023-03-10T00:31:04.416Z,1.40
2023-03-10T00:33:33.583Z,0.88
2023-03-10T00:36:11.576Z,1.30
2023-03-10T00:38:39.374Z,1.65
2023-03-10T00:41:08.870Z,1.30
2023-03-10T00:43:36.447Z,1.10
2023-03-10T00:46:04.293Z,1.10
2023-03-10T00:48:31.208Z,1.38
2023-03-10T00:50:59.042Z,1.23
2023-03-10T00:53:26.272Z,1.40
2023-03-10T00:56:14.233Z,1.00
2023-03-10T00:58:42.031Z,0.80
2023-03-10T01:01:18.234Z,0.90
2023-03-10T01:03:45.742Z,0.80
2023-03-10T01:08:39.839Z,1.10
2023-03-10T01:11:07.008Z,0.90
2023-03-10T01:13:33.980Z,1.00
2023-03-10T01:16:00.795Z,0.90
2023-03-10T01:18:27.660Z,1.35
2023-03-10T01:20:54.448Z,0.95
2023-03-10T01:23:24.455Z,0.80
2023-03-10T01:25:51.948Z,0.77
2023-03-10T01:28:20.394Z,0.60
2023-03-10T01:30:48.590Z,0.80
2023-03-10T01:33:17.534Z,0.80
2023-03-10T01:35:44.819Z,0.80
2023-03-10T01:38:11.932Z,0.80
2023-03-10T01:40:39.490Z,0.60
2023-03-10T01:43:19.985Z,0.90
2023-03-10T01:45:47.632Z,0.85
2023-03-10T01:48:17.526Z,0.82
2023-03-10T01:50:46.993Z,0.80
2023-03-10T01:53:16.070Z,0.60
2023-03-10T01:55:48.355Z,0.80
2023-03-10T01:58:17.106Z,0.70
2023-03-10T02:00:43.978Z,0.70
2023-03-10T02:03:19.710Z,0.60
2023-03-10T02:05:51.603Z,0.90
2023-03-10T02:08:19.662Z,0.80
2023-03-10T02:10:47.208Z,0.95
2023-03-10T02:13:14.246Z,0.80
2023-03-10T02:15:41.612Z,0.80
2023-03-10T02:18:12.105Z,0.75
2023-03-10T02:21:16.115Z,0.70
2023-03-10T02:24:00.614Z,0.70
2023-03-10T02:27:10.465Z,0.60
2023-03-10T02:30:12.756Z,0.80
2023-03-10T02:32:44.044Z,1.10
2023-03-10T02:35:11.319Z,1.00
2023-03-10T02:37:46.852Z,0.82
2023-03-10T02:40:37.417Z,1.30
2023-03-10T02:43:13.196Z,0.80
2023-03-10T02:45:43.467Z,0.90
2023-03-10T02:48:13.683Z,0.80
2023-03-10T02:50:45.220Z,1.02
2023-03-10T02:53:16.558Z,0.90
2023-03-10T02:55:43.878Z,0.90
2023-03-10T02:58:11.742Z,0.80
2023-03-10T03:00:41.053Z,0.90
2023-03-10T03:03:09.059Z,0.80
2023-03-10T03:05:36.720Z,0.65
2023-03-10T03:08:05.275Z,0.80
2023-03-10T03:10:32.929Z,0.80
2023-03-10T03:13:00.134Z,0.70
2023-03-10T03:15:27.970Z,0.73
2023-03-10T03:17:54.878Z,0.88
2023-03-10T03:20:22.400Z,0.75
2023-03-10T03:22:50.800Z,0.70
2023-03-10T03:25:19.746Z,0.68
2023-03-10T03:27:47.183Z,0.80
2023-03-10T03:32:42.987Z,0.70
2023-03-10T03:35:20.877Z,0.90
2023-03-10T03:37:47.786Z,0.57
2023-03-10T03:40:15.510Z,0.80
2023-03-10T03:42:47.712Z,0.50
2023-03-10T03:45:17.297Z,0.85
2023-03-10T03:47:45.299Z,0.82
2023-03-10T03:50:16.631Z,0.82
2023-03-10T03:52:43.794Z,0.93
2023-03-10T03:55:14.393Z,0.85
2023-03-10T03:57:41.687Z,1.15
2023-03-10T04:00:12.805Z,0.98
2023-03-10T04:02:42.740Z,0.90
2023-03-10T04:05:09.763Z,0.80
2023-03-10T04:07:39.730Z,0.90
2023-03-10T04:10:10.677Z,1.20
2023-03-10T04:12:37.535Z,1.40
2023-03-10T04:15:07.056Z,0.90
2023-03-10T04:17:34.634Z,1.30
2023-03-10T04:20:07.283Z,1.98
2023-03-10T04:22:37.440Z,1.60
2023-03-10T04:25:06.557Z,1.75
2023-03-10T04:27:34.982Z,2.08
2023-03-10T04:30:03.456Z,2.45
2023-03-10T04:32:32.305Z,2.10
2023-03-10T04:34:59.969Z,2.15
2023-03-10T04:37:27.237Z,1.90
2023-03-10T04:42:21.459Z,2.13
2023-03-10T04:44:48.324Z,2.22
2023-03-10T04:47:15.235Z,2.80
2023-03-10T04:49:42.100Z,1.85
2023-03-10T04:52:11.996Z,2.65
2023-03-10T04:54:38.766Z,2.38
2023-03-10T04:57:05.617Z,2.92
2023-03-10T04:59:32.521Z,3.40
2023-03-10T05:02:00.316Z,2.72
2023-03-10T05:04:27.262Z,3.15
2023-03-10T05:06:55.466Z,2.95
2023-03-10T05:09:36.834Z,2.38
2023-03-10T05:12:05.395Z,3.05
2023-03-10T05:14:34.854Z,2.42
2023-03-10T05:17:01.709Z,2.55
2023-03-10T05:19:29.611Z,2.20
2023-03-10T05:21:58.930Z,2.25
2023-03-10T05:24:25.925Z,2.25
2023-03-10T05:26:52.746Z,1.38
2023-03-10T05:29:20.792Z,1.83
2023-03-10T05:31:52.766Z,1.98
2023-03-10T05:34:26.841Z,1.60
2023-03-10T05:36:56.897Z,1.80
2023-03-10T05:39:24.142Z,1.65
2023-03-10T05:41:54.377Z,1.52
2023-03-10T05:44:22.534Z,1.65
2023-03-10T05:51:43.844Z,1.40
2023-03-10T05:54:11.761Z,1.70
2023-03-10T05:56:38.545Z,1.45
2023-03-10T05:59:07.233Z,1.30
2023-03-10T06:01:37.134Z,1.45
2023-03-10T06:04:04.328Z,1.40
2023-03-10T06:06:31.162Z,2.13
2023-03-10T06:08:58.205Z,1.60
2023-03-10T06:11:25.087Z,1.17
2023-03-10T06:13:51.944Z,1.83
2023-03-10T06:16:18.907Z,1.40
2023-03-10T06:18:45.711Z,1.45
2023-03-10T06:21:14.721Z,1.65
2023-03-10T06:23:41.842Z,1.42
2023-03-10T06:26:12.875Z,1.60
2023-03-10T06:28:42.426Z,1.20
2023-03-10T06:31:18.203Z,1.67
2023-03-10T06:33:45.203Z,1.35
2023-03-10T06:36:13.909Z,1.35
2023-03-10T06:38:40.827Z,1.50
2023-03-10T06:41:08.069Z,1.25
2023-03-10T06:43:35.554Z,1.55
2023-03-10T06:48:30.281Z,1.75
2023-03-10T06:50:57.073Z,1.10
2023-03-10T06:53:23.874Z,1.40
2023-03-10T06:58:33.854Z,1.17
2023-03-10T07:01:01.091Z,1.52
2023-03-10T07:03:28.961Z,1.42
2023-03-10T07:05:58.986Z,1.40
2023-03-10T07:08:29.652Z,1.35
2023-03-10T07:10:56.891Z,1.10
2023-03-10T07:13:23.794Z,1.88
2023-03-10T07:15:50.649Z,2.03
2023-03-10T07:18:17.469Z,1.65
2023-03-10T07:20:45.069Z,0.85
2023-03-10T07:23:12.576Z,1.20
2023-03-10T07:28:07.901Z,1.92
2023-03-10T07:30:34.881Z,1.30
2023-03-10T07:33:01.708Z,1.48
2023-03-10T07:35:28.531Z,1.40
2023-03-10T07:37:55.305Z,1.30
2023-03-10T07:40:25.172Z,1.27
2023-03-10T07:42:54.520Z,2.15
2023-03-10T07:45:22.484Z,1.92
2023-03-10T07:47:51.054Z,1.73
2023-03-10T07:50:18.838Z,1.33
2023-03-10T07:52:46.372Z,1.23
2023-03-10T07:55:13.721Z,1.35
2023-03-10T07:57:40.684Z,1.55
2023-03-10T08:00:08.250Z,0.98
2023-03-10T08:02:41.430Z,1.50
2023-03-10T08:05:09.881Z,1.48
2023-03-10T08:07:37.891Z,1.88
2023-03-10T08:10:05.782Z,1.63
2023-03-10T08:12:33.670Z,1.02
2023-03-10T08:15:00.687Z,1.50
2023-03-10T08:17:30.827Z,1.60
2023-03-10T08:19:58.506Z,1.20
2023-03-10T08:22:25.689Z,1.42
2023-03-10T08:24:52.913Z,1.60
2023-03-10T08:27:19.690Z,1.58
2023-03-10T08:29:46.476Z,1.52
2023-03-10T08:32:13.286Z,1.33
2023-03-10T08:34:40.158Z,1.50
2023-03-10T08:37:07.038Z,1.70
2023-03-10T08:39:33.839Z,1.20
2023-03-10T08:42:00.872Z,1.55
2023-03-10T08:44:27.659Z,1.80
2023-03-10T08:46:55.073Z,1.67
2023-03-10T08:49:22.494Z,1.42
2023-03-10T08:51:49.569Z,2.22
2023-03-10T08:54:20.566Z,1.52
2023-03-10T08:56:48.016Z,1.85
2023-03-10T09:01:41.920Z,1.35
2023-03-10T09:04:09.383Z,1.90
2023-03-10T09:09:05.046Z,1.90
2023-03-10T09:11:33.688Z,2.00
2023-03-10T09:14:02.024Z,1.98
2023-03-10T09:16:29.887Z,1.50
2023-03-10T09:18:57.945Z,2.70
2023-03-10T09:21:25.557Z,2.33
2023-03-10T09:23:53.116Z,1.77
2023-03-10T09:26:20.952Z,1.90
2023-03-10T09:28:49.865Z,2.55
2023-03-10T09:31:20.571Z,1.80
2023-03-10T09:33:48.343Z,2.13
2023-03-10T09:36:16.307Z,1.77
2023-03-10T09:38:43.665Z,1.50
2023-03-10T09:41:44.952Z,2.05
2023-03-10T09:44:47.079Z,1.92
2023-03-10T09:47:49.670Z,1.67
2023-03-10T09:50:35.963Z,1.75
2023-03-10T09:53:11.499Z,1.88
2023-03-10T09:55:47.375Z,1.67
2023-03-10T09:58:31.955Z,1.77
2023-03-10T10:01:00.261Z,1.77
2023-03-10T10:03:52.222Z,1.75
2023-03-10T10:06:29.972Z,2.15
2023-03-10T10:09:07.453Z,1.70
2023-03-10T10:11:36.756Z,1.50
2023-03-10T10:14:31.825Z,1.67
2023-03-10T10:17:01.940Z,1.85
2023-03-10T10:19:28.973Z,1.80
2023-03-10T10:22:27.472Z,1.35
2023-03-10T10:25:19.553Z,1.55
2023-03-10T10:27:48.341Z,1.70
2023-03-10T10:30:29.513Z,1.73
2023-03-10T10:33:05.461Z,1.50
2023-03-10T10:35:41.086Z,2.17
2023-03-10T10:38:23.062Z,2.05
2023-03-10T10:40:56.649Z,1.35
2023-03-10T10:43:23.486Z,1.83
2023-03-10T10:45:56.815Z,1.63
2023-03-10T10:48:46.072Z,1.50
2023-03-10T10:51:29.155Z,2.13
2023-03-10T10:53:57.684Z,2.00
2023-03-10T10:56:25.187Z,1.98
2023-03-10T10:59:19.496Z,2.53
2023-03-10T11:01:59.646Z,2.17
2023-03-10T11:04:29.547Z,1.98
2023-03-10T11:07:20.028Z,1.77
2023-03-10T11:09:47.864Z,1.65
2023-03-10T11:12:34.057Z,1.85
2023-03-10T11:15:04.211Z,1.90
2023-03-10T11:17:33.755Z,2.00
2023-03-10T11:20:25.493Z,1.75
2023-03-10T11:23:18.440Z,1.90
2023-03-10T11:26:09.973Z,1.65
2023-03-10T11:28:43.726Z,1.25
2023-03-10T11:31:10.546Z,1.38
2023-03-10T11:34:00.359Z,1.55
2023-03-10T11:36:40.763Z,1.10
2023-03-10T11:39:43.111Z,0.98
2023-03-10T11:42:32.981Z,1.15
2023-03-10T11:45:17.958Z,0.88
2023-03-10T11:48:02.055Z,1.63
2023-03-10T11:50:36.713Z,1.00
2023-03-10T11:53:18.506Z,1.17
2023-03-10T11:55:46.736Z,0.95
2023-03-10T11:58:39.580Z,1.23
2023-03-10T12:01:08.945Z,1.45
2023-03-10T12:03:44.340Z,1.50
2023-03-10T12:06:17.317Z,1.05
2023-03-10T12:08:44.966Z,1.17
2023-03-10T12:11:19.097Z,0.82
2023-03-10T12:13:49.977Z,1.10
2023-03-10T12:16:24.192Z,0.93
2023-03-10T12:18:51.288Z,1.48
2023-03-10T12:21:19.744Z,1.30
2023-03-10T12:23:48.982Z,1.08
2023-03-10T12:26:35.901Z,1.17
2023-03-10T12:31:51.201Z,1.00
2023-03-10T12:34:28.590Z,0.90
2023-03-10T12:37:04.773Z,1.10
2023-03-10T12:39:38.387Z,0.88
2023-03-10T12:42:28.910Z,1.00
2023-03-10T12:45:17.274Z,1.30
2023-03-10T12:48:03.204Z,0.80
2023-03-10T12:50:54.907Z,0.90
2023-03-10T12:53:30.389Z,1.10
2023-03-10T12:56:12.510Z,0.98
2023-03-10T12:58:52.956Z,0.90
2023-03-10T13:01:24.144Z,0.95
2023-03-10T13:03:53.245Z,0.88
2023-03-10T13:06:31.551Z,1.25
2023-03-10T13:09:14.409Z,0.88
2023-03-10T13:11:43.923Z,0.93
2023-03-10T13:14:16.816Z,0.80
2023-03-10T13:17:00.078Z,0.80
2023-03-10T13:19:33.445Z,0.95
2023-03-10T13:22:01.106Z,0.88
2023-03-10T13:24:30.569Z,0.80
2023-03-10T13:27:24.638Z,0.90
2023-03-10T13:29:57.860Z,0.80
2023-03-10T13:32:26.095Z,0.73
2023-03-10T13:34:53.124Z,1.08
2023-03-10T13:37:19.881Z,0.93
2023-03-10T13:39:46.722Z,0.77
2023-03-10T13:42:37.210Z,0.70
2023-03-10T13:45:22.235Z,0.70
2023-03-10T13:47:50.406Z,0.70
2023-03-10T13:50:17.947Z,0.75
2023-03-10T13:52:57.628Z,0.93
2023-03-10T13:55:24.562Z,0.70
2023-03-10T13:57:52.980Z,0.70
2023-03-10T14:00:22.884Z,0.75
2023-03-10T14:02:51.817Z,0.75
2023-03-10T14:05:39.891Z,0.70
2023-03-10T14:08:16.647Z,0.70
2023-03-10T14:10:43.516Z,0.75
2023-03-10T14:13:40.201Z,0.50
2023-03-10T14:16:07.661Z,0.55
2023-03-10T14:21:32.289Z,0.60
2023-03-10T14:24:17.161Z,0.63
2023-03-10T14:26:44.000Z,0.75
2023-03-10T14:29:17.425Z,0.55
2023-03-10T14:31:50.222Z,0.60
2023-03-10T14:34:17.037Z,0.52
2023-03-10T14:36:43.831Z,0.63
2023-03-10T14:39:10.596Z,0.75
2023-03-10T14:41:37.375Z,0.50
2023-03-10T14:44:04.219Z,0.73
2023-03-10T14:46:34.948Z,0.47
2023-03-10T14:49:01.934Z,0.75
2023-03-10T14:51:35.565Z,0.85
2023-03-10T14:54:03.727Z,0.60
2023-03-10T14:56:31.662Z,0.63
2023-03-10T14:59:01.992Z,0.55
2023-03-10T15:01:29.269Z,0.60
2023-03-10T15:03:56.146Z,0.70
2023-03-10T15:06:23.009Z,0.60
2023-03-10T15:08:49.792Z,0.60
2023-03-10T15:11:24.030Z,0.73
2023-03-10T15:13:57.767Z,0.60
2023-03-10T15:16:24.665Z,0.65
2023-03-10T15:18:53.054Z,0.60
2023-03-10T15:21:20.019Z,0.73
2023-03-10T15:23:46.782Z,0.77
2023-03-10T15:26:14.179Z,0.73
2023-03-10T15:31:07.916Z,0.60
2023-03-10T15:33:34.781Z,0.90
2023-03-10T15:36:01.667Z,0.82
2023-03-10T15:38:28.545Z,0.90
2023-03-10T15:40:56.821Z,0.75
2023-03-10T15:43:23.675Z,0.60
2023-03-10T15:45:51.013Z,0.80
2023-03-10T15:48:18.100Z,0.80
2023-03-10T15:50:46.954Z,0.73
2023-03-10T15:53:14.203Z,0.82
2023-03-10T15:55:42.107Z,0.85
2023-03-10T15:58:12.433Z,0.82
2023-03-10T16:00:39.295Z,0.85
2023-03-10T16:03:06.115Z,0.82
2023-03-10T16:05:34.314Z,0.80
2023-03-10T16:08:01.146Z,0.77
2023-03-10T16:10:28.185Z,1.00
2023-03-10T16:12:54.996Z,0.70
2023-03-10T16:15:21.816Z,0.80
2023-03-10T16:17:48.589Z,0.85
2023-03-10T16:20:18.862Z,0.95
2023-03-10T16:22:45.964Z,0.90
2023-03-10T16:25:15.295Z,0.90
2023-03-10T16:27:43.363Z,0.90
2023-03-10T16:30:11.135Z,1.00
2023-03-10T16:32:38.052Z,0.80
2023-03-10T16:35:05.413Z,0.75
2023-03-10T16:37:32.267Z,1.23
2023-03-10T16:39:59.128Z,1.10
2023-03-10T16:42:28.689Z,0.90
2023-03-10T16:44:56.825Z,1.00
2023-03-10T16:47:24.227Z,1.00
2023-03-10T16:49:51.073Z,1.33
2023-03-10T16:52:17.873Z,1.10
2023-03-10T16:54:46.458Z,1.25
2023-03-10T16:57:14.070Z,0.98
2023-03-10T16:59:42.011Z,0.70
2023-03-10T17:02:18.856Z,0.80
2023-03-10T17:04:46.059Z,0.80
2023-03-10T17:07:14.057Z,0.90
2023-03-10T17:09:40.987Z,1.00
2023-03-10T17:12:08.015Z,0.80
2023-03-10T17:14:35.041Z,1.00
2023-03-10T17:17:02.131Z,0.82
2023-03-10T17:19:29.901Z,0.90
2023-03-10T17:21:58.279Z,1.15
2023-03-10T17:24:25.894Z,1.00
2023-03-10T17:26:53.113Z,1.20
2023-03-10T17:29:19.961Z,1.23
2023-03-10T17:31:51.347Z,1.17
2023-03-10T17:34:19.373Z,1.30
2023-03-10T17:36:48.904Z,1.40
2023-03-10T17:39:19.039Z,1.35
2023-03-10T17:41:46.581Z,1.80
2023-03-10T17:46:42.943Z,1.48
2023-03-10T17:49:13.032Z,1.75
2023-03-10T17:51:44.192Z,1.77
2023-03-10T17:54:22.598Z,2.00
2023-03-10T17:56:49.993Z,2.55
2023-03-10T17:59:17.655Z,2.30
2023-03-10T18:01:46.189Z,2.35
2023-03-10T18:04:13.415Z,2.35
2023-03-10T18:06:40.746Z,2.30
2023-03-10T18:09:11.057Z,2.63
2023-03-10T18:11:38.785Z,2.45
2023-03-10T18:14:06.293Z,2.70
2023-03-10T18:19:01.784Z,2.60
2023-03-10T18:21:28.749Z,2.60
2023-03-10T18:23:55.779Z,1.83
2023-03-10T18:26:26.168Z,2.08
2023-03-10T18:28:53.236Z,2.58
2023-03-10T18:31:29.667Z,2.53
2023-03-10T18:33:56.628Z,2.20
2023-03-10T18:36:24.604Z,1.95
2023-03-10T18:38:51.902Z,2.35
2023-03-10T18:41:24.777Z,2.25
2023-03-10T18:43:51.871Z,2.90
2023-03-10T18:46:19.187Z,2.53
2023-03-10T18:48:46.057Z,2.78
2023-03-10T18:51:13.612Z,2.17
2023-03-10T18:56:07.780Z,2.58
2023-03-10T18:58:35.086Z,3.08
2023-03-10T19:01:01.936Z,3.28
2023-03-10T19:03:29.913Z,2.72
2023-03-10T19:05:57.188Z,3.60
2023-03-10T19:08:25.554Z,3.53
2023-03-10T19:11:00.277Z,3.83
2023-03-10T19:13:29.186Z,3.80
2023-03-10T19:15:56.656Z,3.10
2023-03-10T19:23:17.826Z,3.58
2023-03-10T19:25:44.677Z,2.85
2023-03-10T19:28:11.547Z,3.65
2023-03-10T19:30:42.614Z,3.00
2023-03-10T19:33:10.850Z,3.13
2023-03-10T19:35:38.586Z,3.75
2023-03-10T19:38:05.839Z,3.30
2023-03-10T19:40:32.771Z,2.60
2023-03-10T19:42:59.623Z,3.25
2023-03-10T19:45:26.408Z,1.90
2023-03-10T19:47:55.031Z,2.95
2023-03-10T19:50:21.858Z,3.95
2023-03-10T19:52:49.751Z,2.80
2023-03-10T19:55:23.979Z,4.10
2023-03-10T19:57:52.599Z,5.20
2023-03-10T20:00:25.190Z,4.35
2023-03-10T20:02:52.859Z,4.80
2023-03-10T20:05:20.049Z,4.75
2023-03-10T20:07:47.703Z,4.03
2023-03-10T20:10:16.794Z,4.20
2023-03-10T20:12:44.488Z,4.40
2023-03-10T20:15:11.490Z,4.40
2023-03-10T20:17:38.682Z,4.85
2023-03-10T20:20:10.145Z,4.07
2023-03-10T20:22:39.418Z,4.97
2023-03-10T20:25:08.506Z,4.43
2023-03-10T20:27:35.380Z,4.22
2023-03-10T20:30:06.452Z,3.55
2023-03-10T20:32:33.892Z,4.70
2023-03-10T20:37:28.477Z,4.10
2023-03-10T20:39:55.567Z,4.68
2023-03-10T20:42:22.420Z,4.25
2023-03-10T20:44:49.689Z,5.03
2023-03-10T20:47:16.511Z,3.00
2023-03-10T20:49:45.512Z,3.90
2023-03-10T20:52:12.513Z,4.38
2023-03-10T20:54:39.534Z,3.78
2023-03-10T20:57:06.560Z,3.83
2023-03-10T20:59:33.363Z,3.20
2023-03-10T21:02:00.485Z,4.03
2023-03-10T21:04:28.098Z,3.72
2023-03-10T21:06:55.073Z,4.30
2023-03-10T21:09:21.879Z,3.45
2023-03-10T21:11:49.080Z,3.50
2023-03-10T21:14:16.817Z,3.97
2023-03-10T21:16:46.448Z,3.65
2023-03-10T21:19:13.566Z,3.58
2023-03-10T21:21:40.786Z,3.65
2023-03-10T21:24:07.597Z,3.67
2023-03-10T21:26:34.450Z,2.90
2023-03-10T21:29:01.325Z,2.30
2023-03-10T21:31:28.115Z,2.20
2023-03-10T21:33:55.069Z,2.15
2023-03-10T21:36:23.761Z,2.03
2023-03-10T21:38:51.595Z,3.00
2023-03-10T21:41:27.336Z,2.90
2023-03-10T21:43:55.625Z,2.67
2023-03-10T21:46:23.955Z,2.92
2023-03-10T21:48:52.186Z,3.05
2023-03-10T21:51:21.219Z,3.35
2023-03-10T21:53:48.022Z,3.55
2023-03-10T21:56:17.674Z,3.10
2023-03-10T21:58:45.670Z,3.20
2023-03-10T22:01:14.930Z,3.00
2023-03-10T22:03:42.876Z,3.53
2023-03-10T22:06:10.402Z,3.30
2023-03-10T22:11:08.539Z,2.65
2023-03-10T22:13:38.568Z,2.83
2023-03-10T22:16:07.303Z,2.72
2023-03-10T22:18:34.559Z,2.95
2023-03-10T22:21:01.386Z,3.00
2023-03-10T22:23:29.225Z,2.90
2023-03-10T22:25:55.999Z,3.00
2023-03-10T22:28:23.110Z,2.95
2023-03-10T22:30:49.901Z,3.00
2023-03-10T22:33:16.663Z,2.45
2023-03-10T22:35:47.343Z,4.95
2023-03-10T22:38:14.168Z,3.10
2023-03-10T22:40:40.947Z,2.80
2023-03-10T22:43:07.701Z,2.38
2023-03-10T22:45:35.294Z,2.58
2023-03-10T22:48:05.925Z,3.50
2023-03-10T22:50:38.330Z,3.00
2023-03-10T22:53:14.888Z,3.10
2023-03-10T22:55:43.488Z,3.20
2023-03-10T22:58:11.111Z,3.13
2023-03-10T23:00:39.473Z,2.60
2023-03-10T23:03:07.318Z,3.13
2023-03-10T23:05:34.532Z,3.25
2023-03-10T23:08:01.359Z,3.05
2023-03-10T23:10:33.725Z,2.65
2023-03-10T23:13:02.546Z,2.78
2023-03-10T23:15:33.331Z,2.80
2023-03-10T23:18:00.645Z,3.10
2023-03-10T23:20:34.138Z,3.45
2023-03-10T23:23:02.427Z,2.65
2023-03-10T23:25:34.987Z,3.22
2023-03-10T23:28:03.110Z,3.13
2023-03-10T23:30:30.808Z,3.05
2023-03-10T23:32:57.816Z,3.60
2023-03-10T23:35:30.722Z,3.97
2023-03-10T23:37:59.894Z,3.58
2023-03-10T23:40:28.771Z,3.58
2023-03-10T23:42:58.011Z,3.97
2023-03-10T23:45:26.857Z,4.82
2023-03-10T23:47:55.504Z,4.18
2023-03-10T23:50:34.140Z,4.55
2023-03-10T23:53:02.081Z,4.47
2023-03-10T23:55:32.293Z,4.47
2023-03-10T23:57:59.106Z,3.83
